29/4 a 8/5 - Fresco a templado y luego breve entrada de aire polar

Avatar de Usuario
Ezequiel1995
Mensajes: 1568
Registrado: Mar Nov 12, 2019 4:50 pm
Ubicación: Merlo, Buenos Aires
Contactar:

Re: 29/4 a 9/5 - Fresco a templado y luego breve entrada de aire polar

Mensaje por Ezequiel1995 » Lun May 04, 2020 2:16 pm

BOMBAZO
#MuerteALasLineas (by Fedex)
Aplicación Gustfront! 2.5

Avatar de Usuario
diegotelesa
Mensajes: 1516
Registrado: Mié Jul 24, 2013 10:48 pm
Ubicación: Ramos Mejía

Re: 29/4 a 9/5 - Fresco a templado y luego breve entrada de aire polar

Mensaje por diegotelesa » Lun May 04, 2020 2:18 pm

Chaparrón fuerte!

Avatar de Usuario
Diecha
Mensajes: 13814
Registrado: Jue Ago 25, 2011 9:31 pm
Ubicación: Lomas de Zamora

Re: 29/4 a 9/5 - Fresco a templado y luego breve entrada de aire polar

Mensaje por Diecha » Lun May 04, 2020 2:20 pm

- San Fernando 14 hs: SADF 041700Z 25002KT CAVOK 17/15 Q1011
- Aeroparque 14 hs: SABE 041700Z VRB04KT 9999 FEW035 BKN100 18/15 Q1011
- Ezeiza 14 hs: SAEZ 041700Z 31006KT 9999 FEW024 BKN060 OVC200 19/15 Q1011

Imagen
Imagen
Imagen
Última edición por Diecha el Lun May 04, 2020 2:29 pm, editado 1 vez en total.

Avatar de Usuario
diegotelesa
Mensajes: 1516
Registrado: Mié Jul 24, 2013 10:48 pm
Ubicación: Ramos Mejía

Re: 29/4 a 9/5 - Fresco a templado y luego breve entrada de aire polar

Mensaje por diegotelesa » Lun May 04, 2020 2:21 pm

Truenos.

Avatar de Usuario
Ale de Castelar
Mensajes: 27749
Registrado: Sab Mar 03, 2012 12:25 pm
Ubicación: Caballito

Re: 29/4 a 9/5 - Fresco a templado y luego breve entrada de aire polar

Mensaje por Ale de Castelar » Lun May 04, 2020 2:22 pm

Cortina tremenda hacia capital sudoeste y GBA sur
Adjuntos
IMG_20200504_141927.jpg

Avatar de Usuario
Ezequiel1995
Mensajes: 1568
Registrado: Mar Nov 12, 2019 4:50 pm
Ubicación: Merlo, Buenos Aires
Contactar:

Re: 29/4 a 9/5 - Fresco a templado y luego breve entrada de aire polar

Mensaje por Ezequiel1995 » Lun May 04, 2020 2:28 pm

Hermoso chaparrón. Ya paró. Siguen los truenos
#MuerteALasLineas (by Fedex)
Aplicación Gustfront! 2.5

Avatar de Usuario
Diecha
Mensajes: 13814
Registrado: Jue Ago 25, 2011 9:31 pm
Ubicación: Lomas de Zamora

Re: 29/4 a 9/5 - Fresco a templado y luego breve entrada de aire polar

Mensaje por Diecha » Lun May 04, 2020 2:28 pm

- Ezeiza 14:14 hs: SAEZ 041714Z 30005KT 5000 -RA FEW024 BKN060 OVC200 19/15 Q1011

Imagen

Avatar de Usuario
Ezequiel1995
Mensajes: 1568
Registrado: Mar Nov 12, 2019 4:50 pm
Ubicación: Merlo, Buenos Aires
Contactar:

Re: 29/4 a 9/5 - Fresco a templado y luego breve entrada de aire polar

Mensaje por Ezequiel1995 » Lun May 04, 2020 2:31 pm

Se está acercando una pared (?) o eso parece. Se está levantando viento

EDIT: Diluvia!!
#MuerteALasLineas (by Fedex)
Aplicación Gustfront! 2.5

Franco_storm
Mensajes: 3999
Registrado: Dom Dic 02, 2012 1:48 pm
Ubicación: I.Casanova- Oeste del GBA

Re: 29/4 a 9/5 - Fresco a templado y luego breve entrada de aire polar

Mensaje por Franco_storm » Lun May 04, 2020 2:37 pm

Llueve con truenos!
BOMBAZO !

Avatar de Usuario
diegotelesa
Mensajes: 1516
Registrado: Mié Jul 24, 2013 10:48 pm
Ubicación: Ramos Mejía

Re: 29/4 a 9/5 - Fresco a templado y luego breve entrada de aire polar

Mensaje por diegotelesa » Lun May 04, 2020 2:38 pm

Acá en ramos también se vió el rayo! Se puso re oscuro!

Responder